Time;durP1;ratioP1;P1;durP2;ratioP2;P2;SDS_P1;SDS_P2;PMS_P1;PMS_P2;Temp;Humidity;BMP_temperature;BMP_pressure;BME280_temperature;BME280_humidity;BME280_pressure;Samples;Min_cycle;Max_cycle;Signal;HPM_P1;HPM_P2
2022/06/09 00:01:18;;;;;;;24.20;9.20;;;;;;;;;;5036389;28;20041;-81
2022/06/09 00:03:50;;;;;;;20.80;8.77;;;;;;;;;;5054481;28;20041;-81
2022/06/09 00:06:17;;;;;;;17.75;8.27;;;;;;;;;;5036143;28;20116;-80
2022/06/09 00:08:44;;;;;;;20.88;8.88;;;;;;;;;;5036273;28;20041;-80
2022/06/09 00:11:13;;;;;;;26.33;9.05;;;;;;;;;;5054017;28;20036;-81
2022/06/09 00:13:40;;;;;;;19.85;8.25;;;;;;;;;;5054105;28;20041;-80
2022/06/09 00:16:07;;;;;;;25.40;8.73;;;;;;;;;;5036370;28;20072;-80
2022/06/09 00:18:33;;;;;;;27.88;9.65;;;;;;;;;;5035406;28;20123;-81
2022/06/09 00:20:59;;;;;;;27.17;9.18;;;;;;;;;;5035967;28;20120;-81
2022/06/09 00:23:25;;;;;;;19.10;9.07;;;;;;;;;;5036028;28;20525;-80
2022/06/09 00:25:51;;;;;;;22.17;9.05;;;;;;;;;;5036097;28;20131;-80
2022/06/09 00:28:18;;;;;;;23.73;8.55;;;;;;;;;;5035883;28;20502;-80
2022/06/09 00:30:46;;;;;;;19.55;8.40;;;;;;;;;;5035699;28;20049;-80
2022/06/09 00:33:12;;;;;;;22.60;8.95;;;;;;;;;;5036221;28;20045;-82
2022/06/09 00:35:38;;;;;;;22.77;8.32;;;;;;;;;;5035759;28;20510;-81
2022/06/09 00:38:04;;;;;;;22.25;9.38;;;;;;;;;;5035786;28;20124;-81
2022/06/09 00:40:30;;;;;;;19.38;8.02;;;;;;;;;;5035661;28;20423;-81
2022/06/09 00:42:56;;;;;;;24.05;9.07;;;;;;;;;;5053525;28;20400;-80
2022/06/09 00:45:29;;;;;;;19.15;8.75;;;;;;;;;;5035368;28;20044;-80
2022/06/09 00:48:08;;;;;;;24.90;9.18;;;;;;;;;;5035492;28;20037;-81
2022/06/09 00:50:36;;;;;;;24.98;9.18;;;;;;;;;;5053236;28;20506;-81
2022/06/09 00:53:05;;;;;;;27.05;8.70;;;;;;;;;;5035587;28;20037;-81
2022/06/09 00:55:32;;;;;;;27.17;8.60;;;;;;;;;;5035248;28;20033;-81
2022/06/09 00:58:02;;;;;;;26.52;8.88;;;;;;;;;;5053434;28;20102;-81
2022/06/09 01:00:31;;;;;;;21.73;8.77;;;;;;;;;;5018927;28;20094;-81
2022/06/09 01:02:59;;;;;;;24.05;8.70;;;;;;;;;;5035454;28;20041;-81
2022/06/09 01:05:27;;;;;;;23.52;8.95;;;;;;;;;;5035004;28;20041;-81
2022/06/09 01:07:55;;;;;;;24.13;9.02;;;;;;;;;;5035221;28;20045;-81
2022/06/09 01:10:21;;;;;;;25.92;8.85;;;;;;;;;;5018632;28;20048;-81
2022/06/09 01:12:48;;;;;;;25.73;9.23;;;;;;;;;;5035373;28;20123;-80
2022/06/09 01:15:18;;;;;;;27.75;9.55;;;;;;;;;;5052576;28;20064;-81
2022/06/09 01:18:03;;;;;;;27.05;9.15;;;;;;;;;;5035151;28;20057;-81
2022/06/09 01:20:42;;;;;;;25.23;9.05;;;;;;;;;;5034977;28;20123;-81
2022/06/09 01:23:28;;;;;;;25.08;10.02;;;;;;;;;;5053183;28;20091;-81
2022/06/09 01:26:10;;;;;;;23.02;9.10;;;;;;;;;;5024708;28;20049;-81
2022/06/09 01:29:15;;;;;;;26.45;9.50;;;;;;;;;;5034971;28;20045;-81
2022/06/09 01:31:58;;;;;;;21.33;9.18;;;;;;;;;;4936471;29;20043;-80
2022/06/09 01:34:32;;;;;;;30.92;10.32;;;;;;;;;;4920984;29;20051;-81
2022/06/09 01:37:02;;;;;;;28.27;9.40;;;;;;;;;;5000367;28;20147;-81
2022/06/09 01:39:30;;;;;;;26.25;9.50;;;;;;;;;;5034870;28;20087;-80
2022/06/09 01:41:56;;;;;;;25.50;9.75;;;;;;;;;;5034675;28;20059;-81
2022/06/09 01:44:22;;;;;;;28.88;10.52;;;;;;;;;;5034751;28;20481;-81
2022/06/09 01:46:48;;;;;;;28.23;11.07;;;;;;;;;;5034676;28;20116;-81
2022/06/09 01:49:16;;;;;;;35.22;11.38;;;;;;;;;;5034668;28;20056;-81
2022/06/09 01:51:43;;;;;;;27.98;11.02;;;;;;;;;;5034642;28;20044;-80
2022/06/09 01:54:21;;;;;;;26.02;11.25;;;;;;;;;;5034659;28;20083;-80
2022/06/09 01:56:49;;;;;;;33.47;11.55;;;;;;;;;;5034377;28;20033;-81
2022/06/09 01:59:26;;;;;;;30.23;11.57;;;;;;;;;;5034747;28;20098;-80
2022/06/09 02:01:58;;;;;;;28.67;11.15;;;;;;;;;;5034495;28;20048;-81
2022/06/09 02:04:27;;;;;;;31.05;12.38;;;;;;;;;;5034862;28;20438;-80
2022/06/09 02:06:53;;;;;;;30.85;12.27;;;;;;;;;;5034471;28;20045;-81
2022/06/09 02:09:20;;;;;;;27.08;12.10;;;;;;;;;;5034658;28;20117;-80
2022/06/09 02:11:48;;;;;;;24.33;11.55;;;;;;;;;;5034398;28;20037;-80
2022/06/09 02:14:14;;;;;;;29.48;11.18;;;;;;;;;;5052192;28;20071;-81
2022/06/09 02:16:40;;;;;;;27.48;10.77;;;;;;;;;;5034336;28;20122;-81
2022/06/09 02:19:06;;;;;;;29.25;11.43;;;;;;;;;;5052516;28;20137;-81
2022/06/09 02:21:34;;;;;;;30.13;10.77;;;;;;;;;;5052062;28;20094;-81
2022/06/09 02:24:00;;;;;;;29.98;11.55;;;;;;;;;;5034396;28;20094;-81
2022/06/09 02:26:26;;;;;;;26.40;10.65;;;;;;;;;;5034251;28;20048;-81
2022/06/09 02:28:53;;;;;;;26.15;9.63;;;;;;;;;;5034340;28;20565;-81
2022/06/09 02:31:20;;;;;;;30.20;10.77;;;;;;;;;;5034276;28;20068;-81
2022/06/09 02:33:46;;;;;;;31.95;10.40;;;;;;;;;;5034294;28;20044;-80
2022/06/09 02:36:12;;;;;;;27.33;10.63;;;;;;;;;;5034120;28;20426;-80
2022/06/09 02:38:38;;;;;;;27.83;9.98;;;;;;;;;;5034547;28;20044;-81
2022/06/09 02:41:04;;;;;;;35.53;11.13;;;;;;;;;;5034377;28;20048;-80
2022/06/09 02:43:30;;;;;;;23.88;10.13;;;;;;;;;;5037544;28;20083;-81
2022/06/09 02:45:57;;;;;;;29.85;11.65;;;;;;;;;;5037736;28;20125;-81
2022/06/09 02:48:24;;;;;;;22.15;10.32;;;;;;;;;;5037900;28;20049;-81
2022/06/09 02:50:52;;;;;;;25.23;11.20;;;;;;;;;;5037602;28;20064;-81
2022/06/09 02:53:18;;;;;;;27.13;10.88;;;;;;;;;;5038065;28;20123;-80
2022/06/09 02:55:44;;;;;;;31.80;11.02;;;;;;;;;;5037713;28;20052;-80
2022/06/09 02:58:11;;;;;;;25.13;11.18;;;;;;;;;;5037862;28;20044;-81
2022/06/09 03:00:37;;;;;;;23.02;9.98;;;;;;;;;;5037636;28;20087;-80
2022/06/09 03:03:05;;;;;;;26.95;10.85;;;;;;;;;;5037647;28;20067;-81
2022/06/09 03:05:32;;;;;;;25.45;11.35;;;;;;;;;;5054226;28;20044;-81
2022/06/09 03:07:58;;;;;;;33.53;12.05;;;;;;;;;;5055258;28;20094;-81
2022/06/09 03:10:24;;;;;;;31.85;12.27;;;;;;;;;;5037453;28;20497;-81
2022/06/09 03:12:51;;;;;;;27.65;12.02;;;;;;;;;;5037196;28;20076;-80
2022/06/09 03:15:18;;;;;;;32.38;11.80;;;;;;;;;;5037121;28;20052;-81
2022/06/09 03:17:44;;;;;;;29.73;12.32;;;;;;;;;;5054974;28;20127;-81
2022/06/09 03:20:15;;;;;;;30.33;12.63;;;;;;;;;;5055083;28;20048;-80
2022/06/09 03:22:41;;;;;;;31.50;13.15;;;;;;;;;;5037195;28;20146;-81
2022/06/09 03:25:07;;;;;;;28.52;11.63;;;;;;;;;;5055090;28;20373;-81
2022/06/09 03:27:33;;;;;;;31.83;13.18;;;;;;;;;;5037423;28;20033;-81
2022/06/09 03:30:01;;;;;;;28.10;13.15;;;;;;;;;;5036987;28;20072;-81
2022/06/09 03:32:27;;;;;;;27.75;12.70;;;;;;;;;;5036717;28;20041;-81
2022/06/09 03:34:53;;;;;;;25.15;13.07;;;;;;;;;;5036945;28;20147;-81
2022/06/09 03:37:20;;;;;;;30.85;13.40;;;;;;;;;;5036641;28;20395;-81
2022/06/09 03:39:46;;;;;;;28.20;13.73;;;;;;;;;;5037012;28;20037;-81
2022/06/09 03:42:12;;;;;;;34.10;13.35;;;;;;;;;;5036617;28;20079;-81
2022/06/09 03:44:38;;;;;;;30.08;14.40;;;;;;;;;;5053418;28;20468;-81
2022/06/09 03:47:05;;;;;;;28.35;13.75;;;;;;;;;;5036776;28;20099;-81
2022/06/09 03:49:31;;;;;;;29.15;14.57;;;;;;;;;;5053341;28;20501;-81
2022/06/09 03:51:57;;;;;;;29.23;14.55;;;;;;;;;;5036623;28;20037;-81
2022/06/09 03:54:23;;;;;;;28.63;14.85;;;;;;;;;;5053445;28;20044;-81
2022/06/09 03:56:49;;;;;;;28.85;13.38;;;;;;;;;;5036580;28;20115;-81
2022/06/09 03:59:15;;;;;;;32.50;14.95;;;;;;;;;;5036674;28;20134;-81
2022/06/09 04:01:41;;;;;;;26.60;15.10;;;;;;;;;;5036333;28;20091;-81
2022/06/09 04:04:07;;;;;;;30.25;14.77;;;;;;;;;;5054530;28;20392;-81
2022/06/09 04:06:35;;;;;;;30.27;15.02;;;;;;;;;;5036262;28;20049;-81
2022/06/09 04:09:01;;;;;;;33.35;13.93;;;;;;;;;;5036377;28;20045;-81
2022/06/09 04:11:27;;;;;;;27.17;15.50;;;;;;;;;;5036137;28;20037;-81
2022/06/09 04:13:53;;;;;;;30.08;15.27;;;;;;;;;;5036269;28;20555;-81
2022/06/09 04:16:28;;;;;;;29.90;15.70;;;;;;;;;;5036160;28;20083;-81
2022/06/09 04:18:55;;;;;;;30.23;16.75;;;;;;;;;;5036077;28;20076;-81
2022/06/09 04:21:22;;;;;;;30.90;15.73;;;;;;;;;;5036370;28;20431;-81
2022/06/09 04:23:49;;;;;;;29.83;15.00;;;;;;;;;;5052716;28;20083;-81
2022/06/09 04:26:17;;;;;;;23.98;14.05;;;;;;;;;;5035968;28;20105;-81
2022/06/09 04:28:43;;;;;;;33.53;14.70;;;;;;;;;;5035569;28;20479;-81
2022/06/09 04:31:10;;;;;;;25.90;13.90;;;;;;;;;;5035884;28;20090;-81
2022/06/09 04:33:36;;;;;;;26.65;13.13;;;;;;;;;;5035675;28;20048;-82
2022/06/09 04:36:02;;;;;;;26.55;13.48;;;;;;;;;;5035806;28;20075;-81
2022/06/09 04:38:28;;;;;;;24.98;13.25;;;;;;;;;;5035766;28;20044;-81
2022/06/09 04:40:54;;;;;;;22.85;12.63;;;;;;;;;;5035847;28;20041;-81
2022/06/09 04:43:21;;;;;;;23.27;11.65;;;;;;;;;;5035405;28;20509;-81
2022/06/09 04:45:47;;;;;;;20.63;11.10;;;;;;;;;;5035652;28;20051;-82
2022/06/09 04:48:13;;;;;;;20.63;11.40;;;;;;;;;;5035388;28;20404;-81
2022/06/09 04:50:39;;;;;;;21.15;12.00;;;;;;;;;;5035472;28;20040;-81
2022/06/09 04:53:08;;;;;;;21.10;11.13;;;;;;;;;;5035622;28;20041;-81
2022/06/09 04:55:35;;;;;;;23.15;12.00;;;;;;;;;;5035580;28;20132;-81
2022/06/09 04:58:01;;;;;;;19.75;11.90;;;;;;;;;;5035204;28;20041;-81
2022/06/09 05:00:27;;;;;;;21.58;13.00;;;;;;;;;;5053332;28;20057;-81
2022/06/09 05:02:54;;;;;;;19.25;13.32;;;;;;;;;;5035544;28;20496;-81
2022/06/09 05:05:21;;;;;;;21.67;14.73;;;;;;;;;;5034882;28;20091;-81
2022/06/09 05:07:48;;;;;;;20.98;13.43;;;;;;;;;;5035225;28;20068;-81
2022/06/09 05:10:14;;;;;;;22.42;14.07;;;;;;;;;;5035235;28;20048;-81
2022/06/09 05:12:40;;;;;;;23.75;14.13;;;;;;;;;;5052927;28;20041;-81
2022/06/09 05:15:06;;;;;;;23.52;15.90;;;;;;;;;;5034964;28;20097;-81
2022/06/09 05:17:32;;;;;;;22.95;14.57;;;;;;;;;;5034979;28;20041;-81
2022/06/09 05:19:58;;;;;;;19.88;14.77;;;;;;;;;;5035233;28;20056;-81
2022/06/09 05:22:24;;;;;;;22.63;15.90;;;;;;;;;;5035383;28;20191;-81
2022/06/09 05:24:50;;;;;;;22.70;15.80;;;;;;;;;;5035235;28;20336;-81
2022/06/09 05:27:16;;;;;;;24.30;16.10;;;;;;;;;;5052774;28;20111;-81
2022/06/09 05:29:42;;;;;;;20.30;15.05;;;;;;;;;;5052778;28;20045;-81
2022/06/09 05:32:09;;;;;;;20.73;14.93;;;;;;;;;;5034930;28;20033;-82
2022/06/09 05:34:35;;;;;;;23.67;16.35;;;;;;;;;;5034809;28;20124;-81
2022/06/09 05:37:01;;;;;;;25.13;17.13;;;;;;;;;;5034931;28;20037;-81
2022/06/09 05:44:59;;;;;;;26.63;17.03;;;;;;;;;;5034947;28;20048;-81
2022/06/09 05:47:25;;;;;;;24.38;16.70;;;;;;;;;;5034896;28;20080;-81
2022/06/09 05:49:52;;;;;;;28.75;18.30;;;;;;;;;;5034772;28;20411;-81
2022/06/09 05:52:20;;;;;;;27.20;16.48;;;;;;;;;;5034745;28;20120;-81
2022/06/09 05:54:46;;;;;;;26.40;18.20;;;;;;;;;;5034473;28;20041;-81
2022/06/09 05:57:12;;;;;;;25.63;17.17;;;;;;;;;;5034749;28;20040;-81
2022/06/09 05:59:38;;;;;;;22.85;17.30;;;;;;;;;;5034801;28;20049;-81
2022/06/09 06:02:05;;;;;;;26.23;17.27;;;;;;;;;;5035009;28;20040;-81
2022/06/09 06:04:32;;;;;;;24.20;17.17;;;;;;;;;;5034589;28;20162;-81
2022/06/09 06:06:58;;;;;;;24.02;17.80;;;;;;;;;;5034655;28;20037;-81
2022/06/09 06:09:24;;;;;;;22.63;17.70;;;;;;;;;;5034433;28;20049;-81
2022/06/09 06:11:50;;;;;;;24.73;17.90;;;;;;;;;;5051291;28;20045;-81
2022/06/09 06:14:17;;;;;;;26.60;18.05;;;;;;;;;;5034087;28;20132;-81
2022/06/09 06:16:43;;;;;;;23.75;18.00;;;;;;;;;;5035328;28;20075;-82
2022/06/09 06:19:12;;;;;;;23.55;17.40;;;;;;;;;;5033275;28;20043;-81
2022/06/09 06:21:38;;;;;;;24.70;18.20;;;;;;;;;;5002095;28;20037;-81
2022/06/09 06:24:05;;;;;;;25.30;17.83;;;;;;;;;;5018301;28;20087;-81
2022/06/09 06:26:32;;;;;;;25.83;19.05;;;;;;;;;;5018339;28;20045;-81
2022/06/09 06:28:58;;;;;;;23.17;19.02;;;;;;;;;;5035510;28;20041;-81
2022/06/09 06:31:24;;;;;;;26.98;19.02;;;;;;;;;;5017805;28;20100;-81
2022/06/09 06:33:50;;;;;;;27.00;19.15;;;;;;;;;;5017818;28;20042;-81
2022/06/09 06:36:16;;;;;;;26.55;18.60;;;;;;;;;;5001653;28;20037;-81
2022/06/09 06:38:42;;;;;;;24.65;19.90;;;;;;;;;;5017601;28;20045;-81
2022/06/09 06:41:10;;;;;;;26.55;20.40;;;;;;;;;;5035702;28;20045;-81
2022/06/09 06:43:36;;;;;;;27.05;19.33;;;;;;;;;;5017322;28;20099;-81
2022/06/09 06:46:02;;;;;;;23.10;19.38;;;;;;;;;;5017847;28;20049;-81
2022/06/09 06:48:29;;;;;;;25.95;19.63;;;;;;;;;;5035332;28;20042;-81
2022/06/09 06:50:55;;;;;;;25.13;18.80;;;;;;;;;;5035452;28;20045;-81
2022/06/09 06:53:21;;;;;;;25.20;19.50;;;;;;;;;;5017490;28;20075;-81
2022/06/09 06:55:47;;;;;;;22.85;19.25;;;;;;;;;;5017707;28;20140;-81
2022/06/09 06:58:13;;;;;;;25.17;19.10;;;;;;;;;;5035057;28;20548;-81
2022/06/09 07:00:40;;;;;;;26.90;19.95;;;;;;;;;;5017557;28;20052;-81
2022/06/09 07:03:07;;;;;;;25.30;19.27;;;;;;;;;;5035322;28;20428;-81
2022/06/09 07:05:34;;;;;;;25.70;19.60;;;;;;;;;;5017251;28;20337;-81
2022/06/09 07:08:00;;;;;;;28.13;19.25;;;;;;;;;;5001404;28;20038;-81
2022/06/09 07:10:27;;;;;;;23.50;18.52;;;;;;;;;;5017126;28;20099;-81
2022/06/09 07:12:53;;;;;;;22.83;18.17;;;;;;;;;;5017229;28;20049;-81
2022/06/09 07:15:19;;;;;;;21.63;18.48;;;;;;;;;;5016971;28;20053;-81
2022/06/09 07:17:45;;;;;;;25.15;19.15;;;;;;;;;;5001327;28;20034;-82
2022/06/09 07:20:12;;;;;;;23.17;19.08;;;;;;;;;;5017410;28;20129;-81
2022/06/09 07:22:38;;;;;;;22.08;18.65;;;;;;;;;;5017663;28;20046;-84
2022/06/09 07:25:05;;;;;;;22.60;18.90;;;;;;;;;;5021590;28;20048;-81
2022/06/09 07:27:31;;;;;;;22.70;18.77;;;;;;;;;;5017207;28;20045;-80
2022/06/09 07:29:57;;;;;;;21.02;17.25;;;;;;;;;;5034769;28;20115;-82
2022/06/09 07:32:23;;;;;;;18.92;16.30;;;;;;;;;;5033863;28;20131;-80
2022/06/09 07:34:50;;;;;;;23.27;17.35;;;;;;;;;;5017034;28;20069;-81
2022/06/09 07:37:16;;;;;;;21.25;17.95;;;;;;;;;;5033697;28;20107;-81
2022/06/09 07:39:42;;;;;;;19.13;14.93;;;;;;;;;;5033484;28;20049;-81
2022/06/09 07:42:09;;;;;;;20.48;14.52;;;;;;;;;;5033601;28;20048;-81
2022/06/09 07:44:35;;;;;;;17.50;13.82;;;;;;;;;;5033315;28;20045;-81
2022/06/09 07:47:01;;;;;;;17.90;14.15;;;;;;;;;;5033614;28;20041;-81
2022/06/09 07:49:27;;;;;;;16.63;13.13;;;;;;;;;;5033214;28;20046;-81
2022/06/09 07:51:53;;;;;;;14.88;11.82;;;;;;;;;;5034831;28;20044;-81
2022/06/09 07:54:19;;;;;;;18.27;11.57;;;;;;;;;;5033426;28;20436;-81
2022/06/09 07:56:45;;;;;;;16.00;10.43;;;;;;;;;;5034780;28;20033;-85
2022/06/09 07:59:11;;;;;;;13.88;9.95;;;;;;;;;;5033064;28;20045;-81
2022/06/09 08:01:38;;;;;;;12.05;8.63;;;;;;;;;;5016703;28;20048;-81
2022/06/09 08:04:04;;;;;;;12.00;9.15;;;;;;;;;;5032884;28;20045;-81
2022/06/09 08:06:30;;;;;;;11.70;9.45;;;;;;;;;;5034451;28;20043;-81
2022/06/09 08:08:57;;;;;;;9.75;7.45;;;;;;;;;;5032879;28;20045;-81
2022/06/09 08:11:23;;;;;;;10.35;7.18;;;;;;;;;;5033260;28;20045;-81
2022/06/09 08:13:50;;;;;;;11.13;6.50;;;;;;;;;;5032609;28;20056;-81
2022/06/09 08:16:16;;;;;;;9.95;6.15;;;;;;;;;;5033016;28;20431;-81
2022/06/09 08:18:42;;;;;;;9.48;5.80;;;;;;;;;;5032767;28;20396;-81
2022/06/09 08:21:08;;;;;;;9.85;5.35;;;;;;;;;;5032892;28;20052;-81
2022/06/09 08:23:34;;;;;;;10.07;4.90;;;;;;;;;;5031755;28;20091;-81
2022/06/09 08:26:02;;;;;;;13.50;4.70;;;;;;;;;;5032841;28;20431;-81
2022/06/09 08:28:28;;;;;;;8.00;4.25;;;;;;;;;;5016078;28;20053;-81
2022/06/09 08:30:55;;;;;;;8.05;3.10;;;;;;;;;;5032465;28;20044;-82
2022/06/09 08:33:22;;;;;;;6.78;2.90;;;;;;;;;;5015905;28;20465;-82
2022/06/09 08:35:49;;;;;;;6.60;2.78;;;;;;;;;;5032370;28;20065;-81
2022/06/09 08:38:15;;;;;;;7.32;2.80;;;;;;;;;;5033914;28;20045;-81
2022/06/09 08:40:50;;;;;;;4.05;2.08;;;;;;;;;;5031421;28;20178;-82
2022/06/09 08:43:16;;;;;;;;;;;;;;;;;;5031874;28;20113;-82
2022/06/09 08:45:43;;;;;;;8.13;2.78;;;;;;;;;;5053520;28;20383;-82
2022/06/09 08:48:14;;;;;;;6.22;2.25;;;;;;;;;;5015474;28;20436;-82
2022/06/09 08:50:41;;;;;;;5.75;2.00;;;;;;;;;;5015663;28;20084;-82
2022/06/09 08:53:10;;;;;;;7.72;2.28;;;;;;;;;;5016212;28;20041;-83
2022/06/09 08:55:36;;;;;;;6.30;1.70;;;;;;;;;;5015486;28;20042;-82
2022/06/09 08:58:11;;;;;;;10.68;2.00;;;;;;;;;;5015651;28;20064;-82
2022/06/09 09:00:40;;;;;;;7.70;1.85;;;;;;;;;;5015762;28;20056;-82
2022/06/09 09:03:12;;;;;;;5.38;1.98;;;;;;;;;;5015775;28;20271;-83
2022/06/09 09:05:44;;;;;;;5.82;1.48;;;;;;;;;;5015484;28;20052;-82
2022/06/09 09:08:11;;;;;;;5.15;1.40;;;;;;;;;;5015758;28;20152;-83
2022/06/09 09:10:47;;;;;;;9.38;1.65;;;;;;;;;;5015303;28;20037;-83
2022/06/09 09:13:21;;;;;;;5.65;1.30;;;;;;;;;;5015624;28;20501;-82
2022/06/09 09:15:54;;;;;;;5.30;1.27;;;;;;;;;;5015102;28;20049;-83
2022/06/09 09:18:23;;;;;;;6.00;1.17;;;;;;;;;;5015512;28;20280;-82
2022/06/09 09:20:52;;;;;;;6.55;1.35;;;;;;;;;;5015397;28;20073;-83
2022/06/09 09:23:19;;;;;;;5.82;1.23;;;;;;;;;;5015271;28;20034;-82
2022/06/09 09:25:55;;;;;;;5.97;1.50;;;;;;;;;;5032832;28;20049;-82
2022/06/09 09:28:44;;;;;;;5.65;1.20;;;;;;;;;;5015323;28;20128;-82
2022/06/09 09:31:13;;;;;;;4.40;1.27;;;;;;;;;;5009787;28;20052;-82
2022/06/09 09:33:39;;;;;;;4.95;1.10;;;;;;;;;;5015430;28;20045;-82
2022/06/09 09:36:14;;;;;;;3.22;0.82;;;;;;;;;;5015258;28;20548;-83
2022/06/09 09:38:45;;;;;;;7.78;1.20;;;;;;;;;;5015559;28;20084;-82
2022/06/09 09:41:25;;;;;;;6.43;1.05;;;;;;;;;;5032706;28;20235;-82
2022/06/09 09:43:51;;;;;;;3.22;1.08;;;;;;;;;;5033093;28;20038;-83
2022/06/09 09:46:21;;;;;;;5.53;0.90;;;;;;;;;;5031310;28;20447;-82
2022/06/09 09:48:48;;;;;;;6.03;1.15;;;;;;;;;;5015085;28;20169;-82
2022/06/09 09:51:14;;;;;;;8.65;1.45;;;;;;;;;;5017916;28;20763;-83
2022/06/09 09:53:40;;;;;;;5.60;1.20;;;;;;;;;;5021477;28;20049;-83
2022/06/09 09:56:18;;;;;;;6.25;1.08;;;;;;;;;;5021425;28;20045;-82
2022/06/09 09:58:47;;;;;;;4.07;1.10;;;;;;;;;;5021771;28;20053;-82
2022/06/09 10:01:22;;;;;;;5.55;0.90;;;;;;;;;;5021397;28;20045;-82
2022/06/09 10:09:50;;;;;;;6.75;1.27;;;;;;;;;;5021286;28;20128;-82
2022/06/09 10:12:27;;;;;;;7.33;1.40;;;;;;;;;;5021194;28;20052;-82
2022/06/09 10:15:02;;;;;;;8.88;1.40;;;;;;;;;;5021126;28;20077;-83
2022/06/09 10:17:28;;;;;;;7.10;1.08;;;;;;;;;;5021236;28;20056;-82
2022/06/09 10:20:00;;;;;;;5.95;1.48;;;;;;;;;;5021622;28;20049;-82
2022/06/09 10:22:27;;;;;;;5.40;1.30;;;;;;;;;;5021365;28;20037;-82
2022/06/09 10:25:17;;;;;;;7.88;1.10;;;;;;;;;;5038898;28;20531;-83
2022/06/09 10:27:44;;;;;;;5.43;1.00;;;;;;;;;;5039087;28;20479;-81
2022/06/09 10:30:17;;;;;;;7.07;1.20;;;;;;;;;;5038999;28;20049;-84
2022/06/09 10:32:48;;;;;;;7.50;1.38;;;;;;;;;;5021535;28;20047;-82
2022/06/09 10:35:14;;;;;;;7.88;1.25;;;;;;;;;;5021186;28;20099;-82
2022/06/09 10:37:59;;;;;;;5.60;1.38;;;;;;;;;;5021303;28;20045;-81
2022/06/09 10:40:34;;;;;;;5.05;0.88;;;;;;;;;;5021232;28;20049;-81
2022/06/09 10:43:02;;;;;;;6.68;1.10;;;;;;;;;;5021356;28;20117;-82
2022/06/09 10:45:28;;;;;;;5.95;0.95;;;;;;;;;;5038606;28;20438;-82
2022/06/09 10:56:53;;;;;;;5.35;1.20;;;;;;;;;;5038602;28;20427;-81
2022/06/09 10:59:22;;;;;;;6.30;0.95;;;;;;;;;;5021601;28;20045;-82
2022/06/09 11:01:48;;;;;;;4.97;0.93;;;;;;;;;;5020657;28;20075;-82
2022/06/09 11:04:16;;;;;;;5.97;1.08;;;;;;;;;;5016408;28;20080;-81
2022/06/09 11:06:46;;;;;;;8.77;1.85;;;;;;;;;;5017582;28;20048;-82
2022/06/09 11:09:26;;;;;;;6.68;1.08;;;;;;;;;;5016335;28;20128;-81
2022/06/09 11:11:54;;;;;;;5.18;0.90;;;;;;;;;;5017989;28;20491;-81
2022/06/09 11:14:24;;;;;;;4.00;0.77;;;;;;;;;;5011653;28;20054;-81
2022/06/09 11:16:50;;;;;;;4.07;1.00;;;;;;;;;;5014288;28;20046;-82
2022/06/09 11:19:20;;;;;;;4.35;0.73;;;;;;;;;;5014626;28;20048;-82
2022/06/09 11:21:46;;;;;;;5.95;0.90;;;;;;;;;;5014030;28;20052;-81
2022/06/09 11:24:29;;;;;;;6.47;1.15;;;;;;;;;;5014277;28;20045;-82
2022/06/09 11:26:55;;;;;;;9.18;1.17;;;;;;;;;;5014180;28;20489;-82
2022/06/09 11:29:21;;;;;;;4.57;1.00;;;;;;;;;;5014172;28;20091;-81
2022/06/09 11:32:07;;;;;;;6.88;1.48;;;;;;;;;;4997470;28;20503;-81
2022/06/09 11:34:48;;;;;;;7.30;1.23;;;;;;;;;;4984747;28;20374;-81
2022/06/09 11:37:27;;;;;;;7.47;0.88;;;;;;;;;;4995354;28;20038;-81
2022/06/09 11:40:06;;;;;;;5.70;1.10;;;;;;;;;;5013824;28;20049;-82
2022/06/09 11:42:39;;;;;;;4.47;0.73;;;;;;;;;;5015431;28;20397;-82
2022/06/09 11:45:37;;;;;;;6.72;0.95;;;;;;;;;;5014099;28;20392;-81
2022/06/09 11:48:06;;;;;;;6.35;1.00;;;;;;;;;;4981681;28;20453;-81
2022/06/09 11:50:36;;;;;;;7.35;1.27;;;;;;;;;;5013524;28;20050;-81
2022/06/09 11:53:03;;;;;;;5.53;1.20;;;;;;;;;;5013746;28;20038;-81
2022/06/09 11:58:34;;;;;;;5.57;0.82;;;;;;;;;;5014851;28;20042;-82
2022/06/09 12:01:09;;;;;;;4.43;1.10;;;;;;;;;;5013668;28;20041;-81
2022/06/09 12:03:41;;;;;;;4.65;0.80;;;;;;;;;;5013682;28;20512;-81
2022/06/09 12:06:34;;;;;;;8.57;1.00;;;;;;;;;;5014682;28;20041;-82
2022/06/09 12:09:09;;;;;;;6.70;1.02;;;;;;;;;;4997123;28;20088;-81
2022/06/09 12:11:35;;;;;;;;;;;;;;;;;;5012455;28;20041;-81
2022/06/09 12:14:15;;;;;;;3.67;0.90;;;;;;;;;;5012182;28;19929;-81
2022/06/09 12:16:57;;;;;;;4.18;1.00;;;;;;;;;;5014409;28;20049;-81
2022/06/09 12:19:25;;;;;;;6.85;1.00;;;;;;;;;;5013401;28;20088;-81
2022/06/09 12:21:55;;;;;;;6.68;1.50;;;;;;;;;;5012922;28;20052;-81
2022/06/09 12:24:30;;;;;;;5.03;0.98;;;;;;;;;;5013241;28;20054;-81
2022/06/09 12:27:15;;;;;;;7.30;1.00;;;;;;;;;;5012836;28;20056;-81
2022/06/09 12:29:43;;;;;;;6.68;1.00;;;;;;;;;;5013283;28;20038;-82
2022/06/09 12:32:09;;;;;;;7.38;1.15;;;;;;;;;;5012820;28;20046;-81
2022/06/09 12:34:37;;;;;;;104.97;31.92;;;;;;;;;;5013082;28;20083;-81
2022/06/09 12:37:04;;;;;;;6.63;1.27;;;;;;;;;;4996345;28;20049;-81
2022/06/09 12:39:39;;;;;;;13.77;1.50;;;;;;;;;;5014280;28;20045;-81
2022/06/09 12:42:07;;;;;;;23.00;1.80;;;;;;;;;;5012504;28;20050;-81
2022/06/09 12:44:40;;;;;;;41.20;37.20;;;;;;;;;;5012735;28;20050;-82
2022/06/09 12:47:17;;;;;;;54.63;3.28;;;;;;;;;;4996156;28;20046;-82
2022/06/09 12:49:44;;;;;;;4.07;0.95;;;;;;;;;;5012232;28;20512;-81
2022/06/09 12:52:28;;;;;;;6.30;1.27;;;;;;;;;;5012337;28;20044;-82
2022/06/09 12:54:59;;;;;;;5.33;0.90;;;;;;;;;;5013142;28;20041;-81
2022/06/09 12:57:27;;;;;;;5.05;1.00;;;;;;;;;;5012507;28;20053;-81
2022/06/09 13:00:02;;;;;;;4.65;1.35;;;;;;;;;;4996263;28;20045;-82
2022/06/09 13:02:30;;;;;;;5.18;1.02;;;;;;;;;;5012304;28;20041;-82
2022/06/09 13:04:56;;;;;;;6.10;0.98;;;;;;;;;;5012609;28;20042;-81
2022/06/09 13:07:23;;;;;;;5.10;0.80;;;;;;;;;;5013641;28;20120;-81
2022/06/09 13:10:04;;;;;;;4.13;0.70;;;;;;;;;;5011467;28;20050;-82
2022/06/09 13:15:36;;;;;;;5.57;0.93;;;;;;;;;;5028223;28;20508;-82
2022/06/09 13:18:12;;;;;;;3.95;1.20;;;;;;;;;;4998835;28;20046;-81
2022/06/09 13:21:06;;;;;;;6.55;1.02;;;;;;;;;;5015722;28;20049;-82
2022/06/09 13:23:32;;;;;;;5.25;1.13;;;;;;;;;;5015042;28;20069;-81
2022/06/09 13:25:59;;;;;;;3.97;0.90;;;;;;;;;;4998820;28;20041;-81
2022/06/09 13:28:30;;;;;;;5.53;1.08;;;;;;;;;;5032601;28;20041;-81
2022/06/09 13:30:56;;;;;;;4.88;1.27;;;;;;;;;;5015273;28;20044;-81
2022/06/09 13:33:35;;;;;;;5.55;0.95;;;;;;;;;;5015287;28;20470;-82
2022/06/09 13:36:19;;;;;;;6.35;1.00;;;;;;;;;;5015220;28;20042;-81
2022/06/09 13:38:46;;;;;;;7.22;1.30;;;;;;;;;;5032740;28;20072;-82
2022/06/09 13:41:16;;;;;;;4.38;1.10;;;;;;;;;;5033129;28;20052;-81
2022/06/09 13:43:47;;;;;;;5.18;0.98;;;;;;;;;;5015093;28;20045;-81
2022/06/09 13:46:16;;;;;;;8.52;1.40;;;;;;;;;;5033064;28;20457;-81
2022/06/09 13:48:51;;;;;;;4.07;0.95;;;;;;;;;;5014963;28;20124;-82
2022/06/09 13:51:25;;;;;;;1184.60;526.70;;;;;;;;;;5015384;28;20064;-81
2022/06/09 13:54:00;;;;;;;305.88;76.57;;;;;;;;;;5014808;28;20124;-81
2022/06/09 13:56:25;;;;;;;3.97;0.80;;;;;;;;;;5015177;28;20037;-82
2022/06/09 13:58:51;;;;;;;5.45;1.23;;;;;;;;;;5014751;28;20397;-81
2022/06/09 14:01:17;;;;;;;8.02;1.08;;;;;;;;;;5015118;28;20120;-81
2022/06/09 14:03:46;;;;;;;6.85;1.10;;;;;;;;;;5032338;28;20400;-81
2022/06/09 14:06:15;;;;;;;3.25;0.70;;;;;;;;;;5015120;28;20045;-81
2022/06/09 14:08:42;;;;;;;4.03;0.68;;;;;;;;;;5014555;28;20408;-82
2022/06/09 14:11:11;;;;;;;4.93;0.88;;;;;;;;;;5014872;28;20037;-81
2022/06/09 14:13:38;;;;;;;4.72;0.75;;;;;;;;;;4998059;28;20045;-82
2022/06/09 14:16:04;;;;;;;5.55;1.00;;;;;;;;;;5015146;28;20042;-81
2022/06/09 14:18:34;;;;;;;5.10;0.95;;;;;;;;;;5014594;28;20060;-81
2022/06/09 14:21:01;;;;;;;2.72;0.55;;;;;;;;;;5015144;28;20384;-81
2022/06/09 14:23:33;;;;;;;16.88;1.45;;;;;;;;;;5014460;28;20049;-81
2022/06/09 14:26:00;;;;;;;7.97;2.00;;;;;;;;;;4998340;28;20087;-81
2022/06/09 14:28:27;;;;;;;4.53;1.10;;;;;;;;;;5014681;28;20364;-81
2022/06/09 14:30:53;;;;;;;3.55;0.70;;;;;;;;;;5032560;28;20117;-82
2022/06/09 14:33:19;;;;;;;4.05;1.02;;;;;;;;;;5014431;28;20073;-81
2022/06/09 14:35:45;;;;;;;5.75;0.80;;;;;;;;;;5014897;28;20088;-81
2022/06/09 14:38:12;;;;;;;3.90;0.85;;;;;;;;;;5015814;28;20033;-81
2022/06/09 14:40:40;;;;;;;2.83;0.90;;;;;;;;;;5036317;28;20041;-81
2022/06/09 14:43:07;;;;;;;6.85;1.25;;;;;;;;;;5018045;28;20052;-81
2022/06/09 14:45:34;;;;;;;16.98;2.03;;;;;;;;;;5035892;28;20049;-81
2022/06/09 14:48:00;;;;;;;5.38;1.20;;;;;;;;;;5035951;28;20094;-81
2022/06/09 14:50:26;;;;;;;49.67;3.78;;;;;;;;;;5018084;28;20087;-81
2022/06/09 14:52:52;;;;;;;0.00;0.00;;;;;;;;;;5018092;28;20370;-81
2022/06/09 14:55:18;;;;;;;0.00;0.00;;;;;;;;;;5018201;28;20047;-81
2022/06/09 14:57:44;;;;;;;0.00;0.00;;;;;;;;;;5018168;28;20515;-81
2022/06/09 15:00:21;;;;;;;0.00;0.00;;;;;;;;;;5035285;28;20045;-81
2022/06/09 15:02:48;;;;;;;0.00;0.00;;;;;;;;;;5018067;28;20220;-82
2022/06/09 15:05:16;;;;;;;0.00;0.00;;;;;;;;;;5017112;28;20041;-80
2022/06/09 15:07:43;;;;;;;0.00;0.00;;;;;;;;;;5035365;28;20259;-81